Time;durP1;ratioP1;P1;durP2;ratioP2;P2;SDS_P1;SDS_P2;PMS_P1;PMS_P2;Temp;Humidity;BMP_temperature;BMP_pressure;BME280_temperature;BME280_humidity;BME280_pressure;Samples;Min_cycle;Max_cycle;Signal;HPM_P1;HPM_P2
2023/09/14 00:01:19;;;;;;;;;46.50;38.25;;;;;24.01;31.94;99234.84;5070838;28;8875;-81
2023/09/14 00:03:48;;;;;;;;;42.50;36.50;;;;;24.11;31.94;99238.47;5099130;28;8861;-79
2023/09/14 00:06:19;;;;;;;;;41.75;36.25;;;;;23.91;32.03;99235.59;5109884;28;8829;-79
2023/09/14 00:08:48;;;;;;;;;46.75;38.25;;;;;23.99;32.45;99236.81;5109123;28;8932;-79
2023/09/14 00:11:17;;;;;;;;;40.00;35.00;;;;;24.01;32.27;99232.16;5096958;28;8959;-79
2023/09/14 00:13:46;;;;;;;;;42.75;36.75;;;;;24.06;32.08;99232.63;5088587;28;8913;-79
2023/09/14 00:16:15;;;;;;;;;47.50;40.00;;;;;24.08;31.78;99230.69;5089547;28;9711;-79
2023/09/14 00:18:44;;;;;;;;;46.25;38.00;;;;;24.07;31.51;99221.75;5069560;28;8825;-81
2023/09/14 00:21:14;;;;;;;;;40.75;35.00;;;;;24.10;31.60;99226.88;5077479;28;8872;-79
2023/09/14 00:23:44;;;;;;;;;43.75;37.00;;;;;24.17;32.08;99232.63;5090413;28;8848;-81
2023/09/14 00:26:14;;;;;;;;;41.25;35.75;;;;;24.20;31.31;99227.00;5111935;28;8844;-79
2023/09/14 00:28:48;;;;;;;;;39.50;35.00;;;;;24.25;31.93;99232.84;5108352;28;8845;-78
2023/09/14 00:31:17;;;;;;;;;46.00;38.00;;;;;24.29;31.61;99231.59;5110439;28;8848;-81
2023/09/14 00:33:47;;;;;;;;;42.75;36.75;;;;;24.31;31.98;99236.84;5122202;27;8834;-81
2023/09/14 00:36:15;;;;;;;;;45.50;38.50;;;;;24.32;32.18;99238.53;5109485;28;8857;-80
2023/09/14 00:38:46;;;;;;;;;43.25;37.25;;;;;24.34;31.92;99242.81;5117115;27;8920;-78
2023/09/14 00:41:15;;;;;;;;;18.50;18.25;;;;;24.34;32.67;99247.34;5123576;28;8865;-77
2023/09/14 00:43:44;;;;;;;;;44.50;38.25;;;;;24.36;33.24;99250.75;5095028;28;8849;-79
2023/09/14 00:46:13;;;;;;;;;47.75;39.75;;;;;24.35;32.06;99247.19;5123971;27;8855;-78
2023/09/14 00:48:43;;;;;;;;;45.50;38.25;;;;;24.39;32.61;99249.63;5110972;28;9616;-81
2023/09/14 00:51:12;;;;;;;;;44.50;37.25;;;;;24.38;32.56;99254.16;5111032;27;8938;-79
2023/09/14 00:53:42;;;;;;;;;45.50;38.25;;;;;24.41;32.84;99247.66;5094303;28;8847;-80
2023/09/14 00:56:12;;;;;;;;;42.50;36.75;;;;;24.43;32.62;99251.06;5095499;28;8840;-80
2023/09/14 00:58:41;;;;;;;;;48.00;39.75;;;;;24.43;33.62;99241.19;5111281;28;8836;-79
2023/09/14 01:01:14;;;;;;;;;48.75;39.75;;;;;24.43;33.42;99243.03;5111353;28;8898;-79
2023/09/14 01:03:44;;;;;;;;;45.25;38.25;;;;;24.41;33.81;99242.31;5095357;28;8843;-80
2023/09/14 01:06:14;;;;;;;;;45.25;38.25;;;;;24.38;33.15;99243.41;5094229;28;8982;-78
2023/09/14 01:08:43;;;;;;;;;43.75;36.25;;;;;24.35;32.96;99249.03;5094937;27;8847;-80
2023/09/14 01:11:14;;;;;;;;;42.50;36.75;;;;;24.33;32.84;99249.16;5110015;28;8893;-80
2023/09/14 01:13:52;;;;;;;;;43.75;37.75;;;;;24.36;32.70;99248.06;5095344;28;8883;-81
2023/09/14 01:16:27;;;;;;;;;44.50;37.25;;;;;24.35;32.80;99251.72;5101634;28;8949;-81
2023/09/14 01:19:10;;;;;;;;;40.75;35.00;;;;;24.28;32.46;99250.53;5114979;28;8848;-79
2023/09/14 01:21:57;;;;;;;;;45.50;37.25;;;;;24.29;32.25;99255.78;5132109;27;8856;-79
2023/09/14 01:24:46;;;;;;;;;44.00;37.50;;;;;24.30;31.63;99257.50;5115726;27;8871;-79
2023/09/14 01:27:17;;;;;;;;;47.00;39.50;;;;;24.00;33.15;99257.28;5132384;27;8853;-78
2023/09/14 01:29:46;;;;;;;;;45.00;38.25;;;;;23.97;34.49;99261.09;5088699;28;8829;-81
2023/09/14 01:32:15;;;;;;;;;49.25;40.00;;;;;23.71;34.57;99264.03;5138043;27;9693;-80
2023/09/14 01:34:44;;;;;;;;;45.00;38.00;;;;;23.58;33.97;99268.69;5134756;27;8865;-81
2023/09/14 01:37:16;;;;;;;;;47.75;40.25;;;;;23.11;34.36;99268.75;5095928;28;8906;-80
2023/09/14 01:39:47;;;;;;;;;42.25;36.50;;;;;23.04;34.83;99266.69;5093217;28;8940;-79
2023/09/14 01:42:18;;;;;;;;;46.75;38.75;;;;;22.46;35.29;99271.94;5095944;28;8867;-81
2023/09/14 01:44:48;;;;;;;;;45.50;38.50;;;;;22.62;35.20;99259.09;5094246;28;8844;-82
2023/09/14 01:47:17;;;;;;;;;37.75;34.50;;;;;22.80;35.21;99254.16;5094242;28;8858;-81
2023/09/14 01:49:46;;;;;;;;;46.50;39.50;;;;;22.97;34.82;99256.41;5090736;28;8938;-81
2023/09/14 01:52:15;;;;;;;;;43.00;37.25;;;;;23.14;35.31;99260.47;5092584;28;8839;-81
2023/09/14 01:54:44;;;;;;;;;49.00;40.25;;;;;23.25;36.02;99259.63;5089420;28;8884;-81
2023/09/14 01:57:13;;;;;;;;;49.75;41.25;;;;;23.33;36.27;99257.19;5102084;28;8926;-82
2023/09/14 01:59:43;;;;;;;;;47.25;40.75;;;;;23.39;36.53;99261.22;5076364;28;8854;-80
2023/09/14 02:02:12;;;;;;;;;46.50;39.75;;;;;23.41;36.39;99267.31;5043735;28;8850;-80
2023/09/14 02:04:41;;;;;;;;;45.50;39.25;;;;;23.40;36.01;99265.63;5090887;28;8986;-80
2023/09/14 02:07:10;;;;;;;;;45.00;38.50;;;;;23.38;35.61;99263.06;5072073;28;8895;-80
2023/09/14 02:09:40;;;;;;;;;48.25;39.50;;;;;23.34;35.27;99264.28;5023721;28;8845;-79
2023/09/14 02:12:09;;;;;;;;;42.75;36.50;;;;;23.34;35.22;99272.31;5098804;28;8864;-79
2023/09/14 02:14:38;;;;;;;;;35.25;33.00;;;;;23.35;35.06;99265.13;5106983;28;8885;-81
2023/09/14 02:17:08;;;;;;;;;45.00;39.00;;;;;23.33;34.92;99267.91;5081949;28;8872;-80
2023/09/14 02:19:37;;;;;;;;;45.75;39.25;;;;;23.34;35.41;99263.44;5092240;28;8849;-80
2023/09/14 02:22:06;;;;;;;;;47.00;39.50;;;;;23.35;35.31;99262.44;5073556;28;8865;-79
2023/09/14 02:24:35;;;;;;;;;43.00;36.50;;;;;23.34;35.05;99264.28;5073013;28;8864;-81
2023/09/14 02:27:04;;;;;;;;;42.75;37.00;;;;;23.33;35.28;99267.06;5076374;28;8850;-80
2023/09/14 02:29:33;;;;;;;;;44.75;37.50;;;;;23.33;35.21;99264.38;5109586;28;9017;-79
2023/09/14 02:32:02;;;;;;;;;46.25;40.00;;;;;23.31;34.95;99272.56;5096822;28;8880;-80
2023/09/14 02:34:33;;;;;;;;;44.50;37.25;;;;;23.31;34.94;99269.03;5093106;28;9046;-81
2023/09/14 02:37:02;;;;;;;;;46.25;38.75;;;;;23.27;35.15;99273.78;5062374;28;8859;-80
2023/09/14 02:39:32;;;;;;;;;42.25;36.50;;;;;23.22;35.41;99278.63;5108872;28;8897;-79
2023/09/14 02:42:01;;;;;;;;;47.00;40.50;;;;;23.23;35.33;99275.00;5108777;28;8848;-80
2023/09/14 02:44:30;;;;;;;;;47.50;39.50;;;;;23.23;35.37;99276.81;5111382;27;8867;-80
2023/09/14 02:46:59;;;;;;;;;49.00;40.75;;;;;23.22;35.69;99285.84;5092665;28;9643;-81
2023/09/14 02:49:28;;;;;;;;;44.75;38.00;;;;;23.15;35.84;99298.88;5074929;28;8839;-81
2023/09/14 02:51:58;;;;;;;;;47.25;39.25;;;;;23.10;36.09;99295.69;5111413;28;8840;-81
2023/09/14 02:54:27;;;;;;;;;47.00;40.00;;;;;23.05;36.14;99292.50;5130825;28;8839;-80
2023/09/14 02:56:56;;;;;;;;;47.00;39.50;;;;;23.02;36.52;99303.47;5110493;28;9014;-80
2023/09/14 02:59:25;;;;;;;;;47.50;40.50;;;;;23.00;36.79;99291.03;5059943;28;8849;-82
2023/09/14 03:01:54;;;;;;;;;47.75;40.25;;;;;23.00;36.91;99292.88;5108639;27;8884;-81
2023/09/14 03:04:24;;;;;;;;;46.50;39.25;;;;;22.93;37.15;99289.78;5092274;28;8859;-81
2023/09/14 03:06:54;;;;;;;;;47.00;40.00;;;;;22.90;37.14;99290.06;5109022;28;8849;-81
2023/09/14 03:09:24;;;;;;;;;51.50;41.50;;;;;22.80;37.10;99292.53;5098421;27;8855;-80
2023/09/14 03:11:55;;;;;;;;;48.00;41.00;;;;;22.82;37.13;99295.09;5112151;27;8959;-81
2023/09/14 03:14:24;;;;;;;;;47.75;40.50;;;;;22.83;37.00;99290.56;5101426;28;8886;-80
2023/09/14 03:16:53;;;;;;;;;49.50;40.00;;;;;22.80;36.86;99297.88;5089532;28;8837;-80
2023/09/14 03:19:22;;;;;;;;;47.50;40.00;;;;;22.77;36.90;99308.84;5105570;28;8878;-80
2023/09/14 03:21:51;;;;;;;;;47.50;40.50;;;;;22.69;36.99;99307.72;5088857;28;8832;-81
2023/09/14 03:24:20;;;;;;;;;58.25;47.00;;;;;22.57;37.04;99315.69;5089764;28;8885;-80
2023/09/14 03:26:50;;;;;;;;;46.75;39.00;;;;;22.59;36.94;99319.13;5088714;28;8950;-81
2023/09/14 03:29:19;;;;;;;;;50.00;42.00;;;;;22.30;38.10;99323.97;5089211;28;8856;-81
2023/09/14 03:31:50;;;;;;;;;39.75;34.00;;;;;22.09;38.56;99318.34;5106033;28;8844;-81
2023/09/14 03:34:19;;;;;;;;;47.00;39.75;;;;;22.11;39.38;99304.81;5105123;27;8847;-82
2023/09/14 03:36:49;;;;;;;;;44.00;38.00;;;;;22.18;39.72;99306.97;5088785;28;8859;-82
2023/09/14 03:39:18;;;;;;;;;43.75;38.25;;;;;22.23;39.03;99298.56;5089898;28;8949;-81
2023/09/14 03:41:49;;;;;;;;;45.50;38.25;;;;;22.14;38.51;99291.22;5088659;28;9590;-80
2023/09/14 03:44:19;;;;;;;;;59.50;49.00;;;;;22.13;39.50;99287.69;5089023;28;9597;-81
2023/09/14 03:46:48;;;;;;;;;51.50;42.50;;;;;22.00;40.67;99286.88;5105511;28;8847;-81
2023/09/14 03:49:17;;;;;;;;;50.50;39.75;;;;;22.07;41.38;99298.84;5090316;27;8827;-81
2023/09/14 03:51:45;;;;;;;;;46.00;39.25;;;;;22.11;41.49;99303.00;5106257;28;8933;-81
2023/09/14 03:54:15;;;;;;;;;48.00;40.00;;;;;22.17;41.39;99302.56;5105631;28;8840;-80
2023/09/14 03:56:43;;;;;;;;;45.50;39.25;;;;;22.21;41.15;99296.00;5055867;28;8871;-83
2023/09/14 03:59:12;;;;;;;;;45.50;38.00;;;;;22.20;41.17;99290.75;5094334;28;8855;-81
2023/09/14 04:01:42;;;;;;;;;45.25;38.50;;;;;22.21;40.29;99295.16;5107345;28;8866;-79
2023/09/14 04:04:11;;;;;;;;;45.50;38.25;;;;;22.24;40.60;99297.63;5103785;28;8851;-80
2023/09/14 04:06:40;;;;;;;;;66.00;52.33;;;;;22.25;39.97;99304.69;5099879;28;8876;-81
2023/09/14 04:09:09;;;;;;;;;74.50;61.00;;;;;22.32;40.70;99297.09;5090581;28;9242;-81
2023/09/14 04:11:38;;;;;;;;;45.50;38.50;;;;;22.36;40.89;99299.41;5089206;28;10131;-82
2023/09/14 04:14:07;;;;;;;;;42.00;36.25;;;;;22.37;40.63;99293.09;5090190;28;8845;-81
2023/09/14 04:16:36;;;;;;;;;49.00;39.00;;;;;22.39;40.57;99295.63;5054244;28;8863;-81
2023/09/14 04:19:06;;;;;;;;;40.50;36.00;;;;;22.44;40.58;99292.63;5089147;28;8936;-81
2023/09/14 04:21:35;;;;;;;;;42.25;34.75;;;;;22.44;39.36;99296.16;5088076;28;8851;-81
2023/09/14 04:24:05;;;;;;;;;45.00;38.50;;;;;22.50;40.59;99303.72;5087493;28;8863;-80
2023/09/14 04:26:34;;;;;;;;;39.75;34.50;;;;;22.47;39.63;99309.34;5087316;28;8859;-80
2023/09/14 04:29:03;;;;;;;;;62.33;50.33;;;;;22.46;39.66;99309.44;5088069;28;8851;-79
2023/09/14 04:31:31;;;;;;;;;42.00;36.00;;;;;22.48;39.60;99313.69;5104420;28;9032;-79
2023/09/14 04:34:01;;;;;;;;;38.75;33.00;;;;;22.46;39.97;99314.81;5087445;28;8852;-80
2023/09/14 04:36:32;;;;;;;;;38.75;34.75;;;;;22.50;40.06;99322.47;5087393;27;8848;-82
2023/09/14 04:39:01;;;;;;;;;43.25;37.00;;;;;22.38;41.31;99326.94;5089056;28;8868;-81
2023/09/14 04:41:30;;;;;;;;;37.75;34.50;;;;;22.46;41.22;99323.69;5069846;28;8889;-82
2023/09/14 04:43:59;;;;;;;;;42.50;36.25;;;;;22.45;41.42;99324.66;5069886;28;8859;-81
2023/09/14 04:46:29;;;;;;;;;41.00;35.75;;;;;22.49;41.25;99330.66;5091868;28;8869;-81
2023/09/14 04:48:58;;;;;;;;;44.75;38.00;;;;;22.50;40.93;99325.16;5107725;28;8991;-82
2023/09/14 04:51:26;;;;;;;;;47.25;38.75;;;;;22.57;41.58;99328.25;5107819;28;8855;-81
2023/09/14 04:53:57;;;;;;;;;47.50;36.75;;;;;22.65;42.24;99335.72;5107034;28;8848;-81
2023/09/14 04:56:25;;;;;;;;;44.50;38.50;;;;;22.69;42.38;99334.50;5105752;28;8953;-82
2023/09/14 04:58:55;;;;;;;;;46.75;40.25;;;;;22.64;41.55;99337.53;5104717;28;8871;-83
2023/09/14 05:01:24;;;;;;;;;44.75;38.25;;;;;22.55;41.72;99333.72;5099048;28;8884;-80
2023/09/14 05:03:53;;;;;;;;;49.00;39.25;;;;;22.56;41.85;99338.13;5109804;28;8941;-79
2023/09/14 05:06:22;;;;;;;;;44.75;38.50;;;;;22.61;41.62;99329.72;5104117;28;8832;-80
2023/09/14 05:08:51;;;;;;;;;47.00;40.00;;;;;22.66;41.63;99332.06;5104605;28;8879;-80
2023/09/14 05:11:21;;;;;;;;;48.00;41.25;;;;;22.71;41.27;99335.25;5104075;27;8862;-80
2023/09/14 05:13:50;;;;;;;;;47.25;39.25;;;;;22.75;41.44;99334.91;5104904;28;8870;-81
2023/09/14 05:16:21;;;;;;;;;49.75;40.50;;;;;22.77;41.36;99330.28;5089614;28;8879;-81
2023/09/14 05:18:50;;;;;;;;;46.50;38.75;;;;;22.77;41.48;99334.81;5054617;28;8840;-82
2023/09/14 05:21:19;;;;;;;;;42.75;36.75;;;;;22.78;41.45;99337.34;5087395;28;8871;-81
2023/09/14 05:23:48;;;;;;;;;41.00;35.50;;;;;22.81;40.64;99341.63;5106074;28;8835;-80
2023/09/14 05:26:17;;;;;;;;;46.25;39.50;;;;;22.79;40.89;99343.56;5107684;27;8870;-83
2023/09/14 05:28:47;;;;;;;;;42.25;36.00;;;;;22.81;40.50;99347.84;5091029;28;8870;-81
2023/09/14 05:31:16;;;;;;;;;43.00;36.75;;;;;22.80;40.40;99347.94;5096894;28;8870;-83
2023/09/14 05:33:45;;;;;;;;;45.00;38.25;;;;;22.83;40.54;99354.91;5106327;28;8834;-80
2023/09/14 05:36:15;;;;;;;;;44.00;37.25;;;;;22.83;40.08;99360.25;5098109;28;9644;-83
2023/09/14 05:38:44;;;;;;;;;45.00;39.00;;;;;22.79;40.02;99357.81;5122487;27;8871;-83
2023/09/14 05:41:13;;;;;;;;;42.25;36.75;;;;;22.78;40.28;99353.41;5096893;28;8845;-82
2023/09/14 05:43:43;;;;;;;;;41.75;36.75;;;;;22.77;40.37;99361.59;5106438;28;9577;-82
2023/09/14 05:46:13;;;;;;;;;45.25;38.75;;;;;22.80;40.32;99364.03;5089210;28;8872;-82
2023/09/14 05:48:42;;;;;;;;;46.25;39.00;;;;;22.69;40.58;99364.81;5106519;28;9692;-80
2023/09/14 05:51:12;;;;;;;;;44.00;37.75;;;;;22.70;40.76;99361.19;5108146;28;8852;-80
2023/09/14 05:53:41;;;;;;;;;47.50;40.25;;;;;22.74;41.22;99375.22;5109171;28;8828;-81
2023/09/14 05:56:10;;;;;;;;;45.75;39.50;;;;;22.77;41.31;99370.47;5109585;28;8894;-81
2023/09/14 05:58:39;;;;;;;;;49.75;41.75;;;;;22.77;41.31;99365.13;5100234;28;8882;-79
2023/09/14 06:01:08;;;;;;;;;46.50;39.25;;;;;22.80;41.11;99366.72;5089597;28;8846;-82
2023/09/14 06:03:39;;;;;;;;;47.00;40.25;;;;;22.74;41.47;99367.19;5092184;28;8839;-81
2023/09/14 06:06:07;;;;;;;;;45.25;38.75;;;;;22.65;41.49;99374.06;5089392;28;8982;-76
2023/09/14 06:08:37;;;;;;;;;46.75;38.75;;;;;22.67;41.73;99364.09;5091818;27;8836;-77
2023/09/14 06:11:06;;;;;;;;;45.25;37.75;;;;;22.70;41.82;99369.22;5106529;28;8836;-77
2023/09/14 06:13:36;;;;;;;;;44.50;36.50;;;;;22.74;41.37;99357.31;5068620;28;8847;-77
2023/09/14 06:16:05;;;;;;;;;40.00;35.25;;;;;22.78;41.63;99366.81;5095349;28;9021;-76
2023/09/14 06:18:34;;;;;;;;;44.50;37.75;;;;;22.78;42.05;99371.34;5104637;28;8835;-75
2023/09/14 06:21:04;;;;;;;;;45.75;38.50;;;;;22.86;41.90;99376.97;5071224;28;8868;-76
2023/09/14 06:23:33;;;;;;;;;48.25;39.75;;;;;22.80;41.90;99380.09;5108047;28;8831;-77
2023/09/14 06:26:02;;;;;;;;;46.50;38.50;;;;;22.81;41.71;99384.50;5089631;28;8964;-78
2023/09/14 06:28:31;;;;;;;;;46.00;39.00;;;;;22.83;42.50;99387.06;5090432;28;8856;-76
2023/09/14 06:31:00;;;;;;;;;45.50;38.25;;;;;22.90;42.61;99386.53;5100000;28;8863;-76
2023/09/14 06:33:30;;;;;;;;;47.00;39.50;;;;;22.95;42.13;99388.84;5076156;28;8867;-75
2023/09/14 06:35:58;;;;;;;;;49.25;41.50;;;;;22.94;41.91;99392.50;5101310;28;8874;-77
2023/09/14 06:38:29;;;;;;;;;47.75;38.50;;;;;22.94;41.96;99395.19;5105470;28;9033;-75
2023/09/14 06:40:57;;;;;;;;;50.50;42.50;;;;;23.03;42.07;99383.75;5109323;28;8849;-77
2023/09/14 06:43:27;;;;;;;;;47.25;39.75;;;;;23.07;41.91;99389.75;5091923;28;9658;-85
2023/09/14 06:45:55;;;;;;;;;50.00;41.75;;;;;23.18;41.82;99392.47;5091041;28;8852;-84
2023/09/14 06:48:24;;;;;;;;;50.50;42.50;;;;;23.23;41.69;99395.66;5102420;28;8849;-82
2023/09/14 06:50:53;;;;;;;;;46.25;39.25;;;;;23.28;41.42;99392.63;5122991;28;8861;-85
2023/09/14 06:53:22;;;;;;;;;35.50;32.25;;;;;23.11;41.62;99397.47;5100968;27;8898;-86
2023/09/14 06:55:52;;;;;;;;;46.50;40.25;;;;;23.19;41.93;99397.72;5063617;28;8898;-83
2023/09/14 06:58:23;;;;;;;;;43.25;36.25;;;;;23.22;41.62;99406.50;5117042;28;8864;-83
2023/09/14 07:00:52;;;;;;;;;45.25;37.75;;;;;23.28;41.27;99396.19;5083787;28;8957;-84
2023/09/14 07:03:22;;;;;;;;;45.00;37.75;;;;;23.33;41.40;99391.28;5078001;28;8837;-84
2023/09/14 07:05:51;;;;;;;;;46.00;38.50;;;;;23.39;41.27;99395.31;5124167;27;8830;-77
2023/09/14 07:08:20;;;;;;;;;44.50;37.25;;;;;23.51;41.11;99405.13;5073841;27;8899;-77
2023/09/14 07:10:48;;;;;;;;;45.00;37.75;;;;;23.66;40.81;99404.94;5090192;27;8847;-81
2023/09/14 07:13:19;;;;;;;;;44.25;37.00;;;;;23.76;40.76;99403.25;5089550;28;8909;-77
2023/09/14 07:15:48;;;;;;;;;41.50;35.75;;;;;23.88;40.62;99407.63;5102497;28;8883;-78
2023/09/14 07:18:28;;;;;;;;;39.00;33.75;;;;;24.06;40.62;99404.50;5107315;28;8848;-74
2023/09/14 07:21:01;;;;;;;;;45.75;37.25;;;;;24.07;40.12;99407.03;5076057;27;8868;-77
2023/09/14 07:23:31;;;;;;;;;44.00;35.75;;;;;24.13;40.13;99409.28;5089523;27;8831;-76
2023/09/14 07:26:00;;;;;;;;;38.00;33.00;;;;;23.99;40.31;99414.00;5088486;28;8859;-76
2023/09/14 07:28:30;;;;;;;;;42.50;35.75;;;;;24.19;39.79;99415.09;5064389;28;8899;-74
2023/09/14 07:31:04;;;;;;;;;40.25;35.00;;;;;24.29;39.56;99421.47;5047284;28;8854;-73
2023/09/14 07:33:33;;;;;;;;;42.00;36.00;;;;;23.78;40.75;99428.97;5059573;28;8894;-78
2023/09/14 07:36:02;;;;;;;;;40.00;35.00;;;;;24.02;40.26;99414.63;5065625;28;8860;-77
2023/09/14 07:38:31;;;;;;;;;43.00;36.25;;;;;23.97;39.90;99430.22;5025747;28;8859;-78
2023/09/14 07:41:00;;;;;;;;;42.75;36.75;;;;;24.04;39.92;99417.19;5066419;28;8975;-76
2023/09/14 07:43:31;;;;;;;;;40.50;35.50;;;;;23.39;41.23;99432.88;5081331;28;8841;-77
2023/09/14 07:46:00;;;;;;;;;41.00;36.00;;;;;23.16;41.95;99431.97;5074367;28;8857;-77
2023/09/14 07:48:28;;;;;;;;;36.25;32.50;;;;;23.53;41.33;99439.94;5049542;28;8931;-73
2023/09/14 07:50:57;;;;;;;;;36.75;33.75;;;;;23.43;41.20;99437.06;5059413;28;8846;-77
2023/09/14 07:53:26;;;;;;;;;37.25;33.00;;;;;23.88;40.41;99439.00;5063711;28;8859;-76
2023/09/14 07:55:55;;;;;;;;;32.00;29.75;;;;;24.22;39.00;99437.22;5073123;28;8866;-77
2023/09/14 07:58:24;;;;;;;;;33.25;30.50;;;;;23.99;39.18;99441.69;5019153;28;8979;-75
2023/09/14 08:00:54;;;;;;;;;25.50;24.75;;;;;23.82;39.44;99440.34;5108114;28;8875;-78
2023/09/14 08:03:25;;;;;;;;;32.25;30.00;;;;;24.16;38.45;99438.56;5108835;28;8868;-75
2023/09/14 08:05:54;;;;;;;;;34.75;29.75;;;;;23.95;38.28;99433.03;5108742;28;8873;-77
2023/09/14 08:08:23;;;;;;;;;29.25;29.25;;;;;23.36;39.57;99447.41;5106752;28;8903;-77
2023/09/14 08:10:55;;;;;;;;;32.00;30.50;;;;;23.70;39.20;99435.94;5107537;28;8841;-75
2023/09/14 08:13:24;;;;;;;;;31.00;30.25;;;;;23.54;39.60;99449.66;5090856;28;8988;-78
2023/09/14 08:15:55;;;;;;;;;30.50;30.00;;;;;23.33;40.05;99450.31;5106175;28;8851;-84
2023/09/14 08:18:24;;;;;;;;;34.25;32.25;;;;;23.21;40.46;99442.34;5077809;28;9095;-84
2023/09/14 08:20:53;;;;;;;;;19.00;17.00;;;;;22.97;41.26;99438.69;5085375;28;9650;-73
2023/09/14 08:23:21;;;;;;;;;35.25;33.00;;;;;23.29;40.64;99439.94;5085873;28;8865;-72
2023/09/14 08:25:50;;;;;;;;;35.00;31.75;;;;;23.58;39.84;99441.28;5085578;28;8813;-72
2023/09/14 08:28:20;;;;;;;;;36.00;32.75;;;;;23.81;39.23;99432.41;5085301;28;8894;-77
2023/09/14 08:30:50;;;;;;;;;37.00;32.00;;;;;23.69;39.47;99434.22;5085913;28;8843;-74
2023/09/14 08:33:20;;;;;;;;;29.50;29.25;;;;;24.01;39.12;99434.38;5085494;28;8913;-72
2023/09/14 08:35:49;;;;;;;;;31.75;29.75;;;;;24.32;38.69;99432.81;5084268;28;8936;-72
2023/09/14 08:38:18;;;;;;;;;32.25;30.25;;;;;24.37;38.25;99434.28;5015238;28;8840;-74
2023/09/14 08:40:54;;;;;;;;;32.50;31.00;;;;;23.54;38.80;99450.50;5053001;28;8855;-75
2023/09/14 08:43:24;;;;;;;;;31.75;30.00;;;;;23.07;40.26;99440.69;5069420;28;8955;-78
2023/09/14 08:45:55;;;;;;;;;33.50;31.25;;;;;22.78;41.06;99441.84;5068864;28;8828;-75
2023/09/14 08:48:29;;;;;;;;;27.25;26.75;;;;;23.15;40.48;99441.00;5085711;28;8882;-78
2023/09/14 08:51:00;;;;;;;;;38.25;33.50;;;;;23.34;40.42;99443.97;5118099;28;8948;-73
2023/09/14 08:53:32;;;;;;;;;30.75;26.50;;;;;23.71;38.06;99440.31;5088786;28;8857;-79
2023/09/14 08:56:02;;;;;;;;;32.25;30.00;;;;;23.60;38.49;99449.19;5092461;28;8843;-77
2023/09/14 08:58:33;;;;;;;;;32.00;31.00;;;;;24.07;37.55;99433.88;5055819;28;8887;-78
2023/09/14 09:01:03;;;;;;;;;25.75;25.75;;;;;23.71;37.77;99433.09;5092625;28;8879;-74
2023/09/14 09:03:34;;;;;;;;;26.25;25.00;;;;;23.93;37.78;99429.59;5092107;28;8871;-73
2023/09/14 09:06:03;;;;;;;;;28.50;27.25;;;;;24.35;36.59;99431.72;5092027;28;8867;-74
2023/09/14 09:08:33;;;;;;;;;27.75;27.00;;;;;24.72;36.62;99428.72;5091852;28;8855;-72
2023/09/14 09:11:03;;;;;;;;;28.25;26.50;;;;;24.41;35.96;99420.47;5095373;28;8847;-80
2023/09/14 09:13:36;;;;;;;;;31.25;30.00;;;;;23.94;37.46;99431.34;5092158;28;8919;-76
2023/09/14 09:16:05;;;;;;;;;33.25;31.00;;;;;24.20;37.39;99427.56;5056667;28;8910;-71
2023/09/14 09:18:37;;;;;;;;;31.50;29.75;;;;;24.45;37.48;99418.38;5091785;28;8867;-78
2023/09/14 09:21:06;;;;;;;;;34.75;32.75;;;;;24.16;38.13;99417.06;5109598;28;8837;-70
2023/09/14 09:23:36;;;;;;;;;33.50;30.75;;;;;24.22;37.89;99433.69;5097582;28;8880;-70
2023/09/14 09:26:05;;;;;;;;;30.25;30.00;;;;;24.25;38.43;99428.06;5092184;28;8845;-72
2023/09/14 09:28:34;;;;;;;;;36.00;32.50;;;;;24.05;38.06;99424.25;5098821;27;8903;-74
2023/09/14 09:31:03;;;;;;;;;33.50;29.75;;;;;24.61;37.50;99424.22;5095007;28;8856;-72
2023/09/14 09:33:37;;;;;;;;;36.00;32.00;;;;;25.10;36.10;99422.03;5069064;28;8851;-70
2023/09/14 09:36:17;;;;;;;;;26.25;25.75;;;;;25.54;35.50;99428.19;5091113;28;8847;-69
2023/09/14 09:38:49;;;;;;;;;31.25;29.75;;;;;25.55;34.96;99421.81;5090642;28;8848;-72
2023/09/14 09:41:18;;;;;;;;;27.75;27.25;;;;;26.06;34.17;99418.31;5096083;28;8826;-69
2023/09/14 09:43:50;;;;;;;;;30.75;27.25;;;;;25.80;34.17;99414.31;5080154;28;8840;-69
2023/09/14 09:46:19;;;;;;;;;29.00;28.50;;;;;25.63;35.06;99422.00;5090745;28;8891;-70
2023/09/14 09:48:50;;;;;;;;;29.75;28.00;;;;;26.00;34.54;99412.59;5090407;27;8852;-71
2023/09/14 09:51:21;;;;;;;;;30.25;29.25;;;;;26.59;34.08;99419.03;5091729;28;9013;-70
2023/09/14 09:54:04;;;;;;;;;23.75;23.50;;;;;26.86;33.14;99415.69;5090604;28;8890;-71
2023/09/14 09:56:34;;;;;;;;;20.00;20.00;;;;;26.93;32.82;99406.06;5086141;28;8847;-72
2023/09/14 09:59:09;;;;;;;;;25.75;25.50;;;;;26.84;32.81;99402.34;5086054;28;8976;-72
2023/09/14 10:01:39;;;;;;;;;24.50;23.00;;;;;26.84;31.27;99405.03;5090803;28;8839;-71
2023/09/14 10:04:10;;;;;;;;;21.00;21.00;;;;;27.00;30.67;99414.41;5087811;28;8889;-70
2023/09/14 10:06:40;;;;;;;;;21.50;20.75;;;;;25.78;32.38;99406.38;5097445;28;8917;-71
2023/09/14 10:09:11;;;;;;;;;20.25;18.75;;;;;25.65;32.64;99405.72;5098913;28;8869;-73
2023/09/14 10:11:41;;;;;;;;;20.20;20.20;;;;;25.61;32.22;99405.13;5091149;28;8843;-72
2023/09/14 10:14:13;;;;;;;;;23.75;23.50;;;;;25.87;32.53;99408.25;5107135;28;9033;-74
2023/09/14 10:16:44;;;;;;;;;24.20;23.40;;;;;26.40;31.42;99406.34;5068997;28;8848;-72
2023/09/14 10:19:16;;;;;;;;;26.50;22.50;;;;;26.45;31.18;99406.78;5103299;27;8841;-72
2023/09/14 10:21:47;;;;;;;;;21.75;20.25;;;;;26.85;30.79;99401.38;5091877;27;8860;-73
2023/09/14 10:24:18;;;;;;;;;25.50;24.50;;;;;26.95;30.69;99395.09;5093599;28;8856;-74
2023/09/14 10:26:48;;;;;;;;;24.00;22.00;;;;;27.05;30.79;99402.25;5089984;28;8848;-72
2023/09/14 10:29:18;;;;;;;;;19.50;19.50;;;;;27.31;30.89;99400.78;5089340;27;8831;-72
2023/09/14 10:31:49;;;;;;;;;18.00;17.60;;;;;27.86;30.07;99401.00;5090001;27;8842;-70
2023/09/14 10:34:20;;;;;;;;;21.50;21.50;;;;;27.47;29.85;99403.75;5089132;27;8871;-74
2023/09/14 10:36:53;;;;;;;;;20.75;20.00;;;;;27.46;29.91;99402.06;5090006;28;8912;-72
2023/09/14 10:39:24;;;;;;;;;21.50;21.50;;;;;27.02;30.33;99398.97;5057726;28;8928;-72
2023/09/14 10:41:55;;;;;;;;;13.25;12.00;;;;;26.76;30.38;99401.34;5108594;28;8837;-71
2023/09/14 10:44:24;;;;;;;;;18.40;18.40;;;;;26.70;30.46;99410.84;5103663;28;8924;-70
2023/09/14 10:46:56;;;;;;;;;21.80;20.20;;;;;26.37;30.77;99417.41;5100199;28;8829;-72
2023/09/14 10:49:33;;;;;;;;;21.50;21.25;;;;;25.97;32.07;99408.34;5107338;28;8861;-72
2023/09/14 10:52:03;;;;;;;;;20.25;18.75;;;;;25.60;32.91;99414.19;5110304;27;8868;-82
2023/09/14 10:54:32;;;;;;;;;19.60;19.60;;;;;25.98;32.50;99412.72;5052020;28;8855;-76
2023/09/14 10:57:11;;;;;;;;;20.50;20.00;;;;;26.29;31.49;99416.25;5073330;28;8844;-77
2023/09/14 10:59:50;;;;;;;;;19.40;18.40;;;;;26.64;31.39;99412.25;5103817;28;8860;-76
2023/09/14 11:02:56;;;;;;;;;19.60;19.20;;;;;26.76;30.81;99406.72;5094150;28;8937;-78
2023/09/14 11:05:48;;;;;;;;;19.40;18.80;;;;;26.58;30.84;99402.03;5091177;28;8847;-78
2023/09/14 11:08:20;;;;;;;;;21.25;21.25;;;;;27.02;30.34;99397.16;5090415;27;8851;-77
2023/09/14 11:10:58;;;;;;;;;21.50;21.50;;;;;26.89;30.17;99399.25;5109644;28;8861;-77
2023/09/14 11:13:33;;;;;;;;;15.00;14.50;;;;;26.86;30.53;99403.06;5101042;28;8876;-80
2023/09/14 11:16:17;;;;;;;;;22.75;21.00;;;;;27.15;29.90;99404.94;5093428;28;8884;-76
2023/09/14 11:18:57;;;;;;;;;22.00;22.00;;;;;27.17;28.96;99396.69;5099673;27;8941;-78
2023/09/14 11:21:44;;;;;;;;;21.25;20.75;;;;;26.64;29.98;99404.16;5109174;28;8972;-79
2023/09/14 11:24:16;;;;;;;;;21.80;19.60;;;;;26.72;29.79;99408.00;5096847;28;8879;-81
2023/09/14 11:26:49;;;;;;;;;18.80;18.80;;;;;26.69;30.08;99411.00;5095564;27;8872;-80
2023/09/14 11:29:26;;;;;;;;;24.80;21.60;;;;;27.18;30.06;99415.44;5098814;28;8930;-81
2023/09/14 11:31:58;;;;;;;;;21.25;21.25;;;;;26.68;30.86;99399.34;5105748;28;8869;-77
2023/09/14 11:34:37;;;;;;;;;23.50;21.50;;;;;26.88;30.53;99408.31;5094672;28;8845;-76
2023/09/14 11:37:15;;;;;;;;;18.00;18.00;;;;;26.31;31.70;99410.75;5129145;27;8859;-79
2023/09/14 11:39:56;;;;;;;;;18.50;17.75;;;;;25.90;32.03;99407.16;5060505;27;8868;-80